Portada
METAR-TAF:

METAR-TAF

Aeroports :

Bagdad, Iraq

latitud: 33-15-45N, longitud: 44-14-04E, altitud: 35 m

Observació

L'informe es va fer fa 46 minuts, a les 07:00 UTC
Vent 10 kt del Nord/Nord-Oest
Temperatura 35°C
Humitat 22%
Pressió 1011 hPa
Visibilitat 10 km o més
sense núvols per sota de 1500 mi sense presència de cumulonimbus.

METAR: ORBI 190700Z 33010KT CAVOK 35/10 Q1011 NOSIG

Hora: 10:46 (07:46 UTC)

Pronòstic

L'informe es va fer fa 3 hores i 46 minuts, a les 04:00 UTC
Pronòstic vàlid del 16 a les 06 UTC al 20 a les 06 UTC
Vent 9 kt del Nord/Nord-Oest
Visibilitat 10 km o més
sense núvols per sota de 1500 mi sense presència de cumulonimbus.

TAF: ORBI 190400Z 1606/2006 34009KT CAVOK

Observacions i pronòstics meteorològics de més de 4000 aeroports (METAR i TAF).

Les estacions disponibles són els punts grocs i vermells al mapa.

Posi el ratolí al punt desitjat per veure el nom de l'estació.

Feu clic per veure les observacions i els pronòstics meteorològics.

Per canviar el mapa: feu clic els botons verds amb una creu de color negre per apropar; al botó verd amb un guió per allunyar la imatge; o en les fletxes verdes per a mapes adjacents.


METAR-TAF: